createdAt,value
2023-05-25T00:00:49.812Z,16.27
2023-05-25T00:02:06.365Z,16.21
2023-05-25T00:03:10.065Z,16.16
2023-05-25T00:04:16.909Z,16.11
2023-05-25T00:05:20.986Z,16.07
2023-05-25T00:06:26.204Z,16.04
2023-05-25T00:07:29.010Z,16.00
2023-05-25T00:08:31.743Z,15.96
2023-05-25T00:09:34.993Z,15.93
2023-05-25T00:10:37.687Z,15.89
2023-05-25T00:11:40.510Z,15.85
2023-05-25T00:12:43.315Z,15.82
2023-05-25T00:13:46.068Z,15.79
2023-05-25T00:14:48.836Z,15.75
2023-05-25T00:15:51.608Z,15.72
2023-05-25T00:16:54.423Z,15.68
2023-05-25T00:17:57.231Z,15.66
2023-05-25T00:19:03.816Z,15.63
2023-05-25T00:20:07.607Z,15.59
2023-05-25T00:21:10.766Z,15.57
2023-05-25T00:22:13.521Z,15.55
2023-05-25T00:23:16.388Z,15.60
2023-05-25T00:24:19.137Z,15.70
2023-05-25T00:25:21.865Z,15.81
2023-05-25T00:26:24.691Z,15.91
2023-05-25T00:27:27.381Z,16.01
2023-05-25T00:28:30.338Z,16.09
2023-05-25T00:29:33.283Z,16.17
2023-05-25T00:30:36.552Z,16.24
2023-05-25T00:31:39.555Z,16.30
2023-05-25T00:32:42.490Z,16.35
2023-05-25T00:33:45.788Z,16.40
2023-05-25T00:34:48.543Z,16.43
2023-05-25T00:35:52.608Z,16.46
2023-05-25T00:36:55.838Z,16.49
2023-05-25T00:37:58.694Z,16.52
2023-05-25T00:39:01.572Z,16.55
2023-05-25T00:40:07.109Z,16.57
2023-05-25T00:41:09.845Z,16.60
2023-05-25T00:42:12.898Z,16.61
2023-05-25T00:43:16.048Z,16.63
2023-05-25T00:44:21.856Z,16.63
2023-05-25T00:45:24.903Z,16.64
2023-05-25T00:46:28.383Z,16.65
2023-05-25T00:47:32.089Z,16.66
2023-05-25T00:48:35.009Z,16.67
2023-05-25T00:49:37.816Z,16.67
2023-05-25T00:50:41.871Z,16.67
2023-05-25T00:51:46.770Z,16.69
2023-05-25T00:52:50.006Z,16.68
2023-05-25T00:53:52.975Z,16.71
2023-05-25T00:55:00.420Z,16.72
2023-05-25T00:56:07.312Z,16.73
2023-05-25T00:57:10.473Z,16.74
2023-05-25T00:58:13.949Z,16.71
2023-05-25T00:59:33.351Z,16.71
2023-05-25T01:00:37.470Z,16.72
2023-05-25T01:01:40.858Z,16.71
2023-05-25T01:02:45.326Z,16.71
2023-05-25T01:03:53.885Z,16.73
2023-05-25T01:04:59.882Z,16.73
2023-05-25T01:06:07.390Z,16.73
2023-05-25T01:07:11.225Z,16.73
2023-05-25T01:08:14.418Z,16.73
2023-05-25T01:09:19.568Z,16.72
2023-05-25T01:10:22.485Z,16.71
2023-05-25T01:11:27.060Z,16.72
2023-05-25T01:12:30.362Z,16.73
2023-05-25T01:13:34.390Z,16.73
2023-05-25T01:14:39.379Z,16.72
2023-05-25T01:15:42.276Z,16.67
2023-05-25T01:16:45.242Z,16.64
2023-05-25T01:17:54.062Z,16.64
2023-05-25T01:18:56.982Z,16.64
2023-05-25T01:20:09.768Z,16.62
2023-05-25T01:21:22.122Z,16.61
2023-05-25T01:22:32.598Z,16.60
2023-05-25T01:23:36.736Z,16.60
2023-05-25T01:24:40.975Z,16.59
2023-05-25T01:25:46.970Z,16.59
2023-05-25T01:26:59.357Z,16.61
2023-05-25T01:28:25.474Z,16.60
2023-05-25T01:29:28.574Z,16.58
2023-05-25T01:31:53.225Z,16.58
2023-05-25T01:32:56.630Z,16.58
2023-05-25T01:33:59.609Z,16.56
2023-05-25T01:35:04.045Z,16.53
2023-05-25T01:36:06.825Z,16.53
2023-05-25T01:37:09.957Z,16.54
2023-05-25T01:38:13.062Z,16.53
2023-05-25T01:39:15.820Z,16.50
2023-05-25T01:40:18.528Z,16.48
2023-05-25T01:41:21.560Z,16.46
2023-05-25T01:42:24.265Z,16.48
2023-05-25T01:43:26.986Z,16.46
2023-05-25T01:44:30.216Z,16.39
2023-05-25T01:45:33.238Z,16.37
2023-05-25T01:46:39.850Z,16.37
2023-05-25T01:48:03.540Z,16.31
2023-05-25T01:49:17.206Z,16.31
2023-05-25T01:50:23.306Z,16.28
2023-05-25T01:51:32.192Z,16.26
2023-05-25T01:52:51.511Z,16.28
2023-05-25T01:53:58.191Z,16.28
2023-05-25T01:55:03.624Z,16.28
2023-05-25T01:56:08.812Z,16.30
2023-05-25T01:57:13.415Z,16.31
2023-05-25T01:58:17.089Z,16.32
2023-05-25T01:59:21.682Z,16.30
2023-05-25T02:00:31.421Z,16.31
2023-05-25T02:01:34.745Z,16.32
2023-05-25T02:02:38.314Z,16.34
2023-05-25T02:03:41.578Z,16.36
2023-05-25T02:04:45.660Z,16.34
2023-05-25T02:05:48.586Z,16.34
2023-05-25T02:06:54.373Z,16.30
2023-05-25T02:07:57.160Z,16.27
2023-05-25T02:08:59.945Z,16.26
2023-05-25T02:10:02.936Z,16.26
2023-05-25T02:11:05.685Z,16.26
2023-05-25T02:12:08.539Z,16.26
2023-05-25T02:13:11.368Z,16.21
2023-05-25T02:14:14.532Z,16.23
2023-05-25T02:15:18.118Z,16.22
2023-05-25T02:16:22.268Z,16.19
2023-05-25T02:17:28.088Z,16.16
2023-05-25T02:18:30.892Z,16.17
2023-05-25T02:19:33.661Z,16.18
2023-05-25T02:20:36.997Z,16.19
2023-05-25T02:21:39.767Z,16.19
2023-05-25T02:22:42.477Z,16.20
2023-05-25T02:23:45.201Z,16.19
2023-05-25T02:24:48.091Z,16.15
2023-05-25T02:25:51.924Z,16.17
2023-05-25T02:26:54.868Z,16.18
2023-05-25T02:27:58.253Z,16.19
2023-05-25T02:29:03.449Z,16.20
2023-05-25T02:30:06.597Z,16.21
2023-05-25T02:31:09.360Z,16.22
2023-05-25T02:32:12.202Z,16.19
2023-05-25T02:33:15.036Z,16.19
2023-05-25T02:34:17.786Z,16.18
2023-05-25T02:35:21.858Z,16.16
2023-05-25T02:36:24.617Z,16.16
2023-05-25T02:37:27.486Z,16.16
2023-05-25T02:38:30.773Z,16.16
2023-05-25T02:39:34.176Z,16.16
2023-05-25T02:40:36.978Z,16.17
2023-05-25T02:41:39.770Z,16.17
2023-05-25T02:42:43.294Z,16.13
2023-05-25T02:43:46.254Z,16.11
2023-05-25T02:44:49.048Z,16.12
2023-05-25T02:45:51.869Z,16.12
2023-05-25T02:46:54.661Z,16.12
2023-05-25T02:47:57.441Z,16.10
2023-05-25T02:49:00.692Z,16.12
2023-05-25T02:50:04.289Z,16.12
2023-05-25T02:51:08.185Z,16.14
2023-05-25T02:52:11.104Z,16.15
2023-05-25T02:53:14.015Z,16.17
2023-05-25T02:54:17.268Z,16.18
2023-05-25T02:55:20.458Z,16.18
2023-05-25T02:56:23.509Z,16.18
2023-05-25T02:57:27.004Z,16.18
2023-05-25T02:58:29.919Z,16.16
2023-05-25T03:00:01.668Z,16.17
2023-05-25T03:01:05.903Z,16.14
2023-05-25T03:02:10.277Z,16.13
2023-05-25T03:03:14.095Z,16.12
2023-05-25T03:04:18.108Z,16.13
2023-05-25T03:05:20.891Z,16.13
2023-05-25T03:06:26.177Z,16.14
2023-05-25T03:07:34.526Z,16.13
2023-05-25T03:08:37.488Z,16.13
2023-05-25T03:09:40.426Z,16.13
2023-05-25T03:10:43.931Z,16.14
2023-05-25T03:11:47.114Z,16.14
2023-05-25T03:12:52.417Z,16.16
2023-05-25T03:13:55.317Z,16.17
2023-05-25T03:14:58.411Z,16.19
2023-05-25T03:16:01.875Z,16.20
2023-05-25T03:17:04.982Z,16.20
2023-05-25T03:18:07.880Z,16.23
2023-05-25T03:19:13.691Z,16.24
2023-05-25T03:20:16.910Z,16.26
2023-05-25T03:21:25.089Z,16.26
2023-05-25T03:22:29.789Z,16.27
2023-05-25T03:23:32.532Z,16.28
2023-05-25T03:24:41.711Z,16.29
2023-05-25T03:25:45.308Z,16.30
2023-05-25T03:26:48.347Z,16.31
2023-05-25T03:27:54.574Z,16.32
2023-05-25T03:28:57.408Z,16.32
2023-05-25T03:30:00.307Z,16.33
2023-05-25T03:31:04.622Z,16.33
2023-05-25T03:32:07.937Z,16.34
2023-05-25T03:33:13.842Z,16.34
2023-05-25T03:34:20.071Z,16.35
2023-05-25T03:35:22.915Z,16.38
2023-05-25T03:36:28.601Z,16.37
2023-05-25T03:37:31.497Z,16.39
2023-05-25T03:38:35.405Z,16.40
2023-05-25T03:39:38.474Z,16.41
2023-05-25T03:40:41.421Z,16.42
2023-05-25T03:41:44.738Z,16.44
2023-05-25T03:42:47.697Z,16.44
2023-05-25T03:43:50.395Z,16.47
2023-05-25T03:44:53.169Z,16.47
2023-05-25T03:45:55.969Z,16.48
2023-05-25T03:46:58.862Z,16.48
2023-05-25T03:48:01.735Z,16.49
2023-05-25T03:49:04.661Z,16.48
2023-05-25T03:50:07.799Z,16.45
2023-05-25T03:51:10.550Z,16.46
2023-05-25T03:52:13.441Z,16.46
2023-05-25T03:53:17.698Z,16.46
2023-05-25T03:54:21.190Z,16.47
2023-05-25T03:55:24.182Z,16.45
2023-05-25T03:56:27.333Z,16.44
2023-05-25T03:57:30.092Z,16.46
2023-05-25T03:58:34.051Z,16.48
2023-05-25T03:59:36.821Z,16.48
2023-05-25T04:00:39.599Z,16.50
2023-05-25T04:01:42.419Z,16.52
2023-05-25T04:02:45.960Z,16.53
2023-05-25T04:03:49.845Z,16.56
2023-05-25T04:04:53.665Z,16.59
2023-05-25T04:05:58.258Z,16.61
2023-05-25T04:07:01.680Z,16.60
2023-05-25T04:08:08.573Z,16.63
2023-05-25T04:09:11.935Z,16.63
2023-05-25T04:10:14.656Z,16.63
2023-05-25T04:11:17.961Z,16.63
2023-05-25T04:12:20.693Z,16.65
2023-05-25T04:13:23.686Z,16.65
2023-05-25T04:14:26.847Z,16.68
2023-05-25T04:15:30.513Z,16.68
2023-05-25T04:16:45.912Z,16.67
2023-05-25T04:17:50.427Z,16.69
2023-05-25T04:18:53.378Z,16.70
2023-05-25T04:19:56.825Z,16.71
2023-05-25T04:20:59.655Z,16.74
2023-05-25T04:22:04.700Z,16.77
2023-05-25T04:23:07.473Z,16.79
2023-05-25T04:24:11.406Z,16.84
2023-05-25T04:25:14.326Z,16.88
2023-05-25T04:26:17.134Z,16.91
2023-05-25T04:27:22.238Z,16.94
2023-05-25T04:28:25.045Z,16.97
2023-05-25T04:29:32.038Z,17.02
2023-05-25T04:30:56.991Z,17.07
2023-05-25T04:32:30.097Z,17.12
2023-05-25T04:33:51.723Z,17.17
2023-05-25T04:35:03.335Z,17.22
2023-05-25T04:36:14.712Z,17.30
2023-05-25T04:37:17.525Z,17.34
2023-05-25T04:38:21.052Z,17.36
2023-05-25T04:39:23.806Z,17.39
2023-05-25T04:40:30.129Z,17.42
2023-05-25T04:41:33.957Z,17.47
2023-05-25T04:42:40.709Z,17.52
2023-05-25T04:44:04.679Z,17.54
2023-05-25T04:45:10.555Z,17.56
2023-05-25T04:46:17.126Z,17.58
2023-05-25T04:47:20.186Z,17.64
2023-05-25T04:48:24.563Z,17.65
2023-05-25T04:49:27.661Z,17.66
2023-05-25T04:50:30.452Z,17.68
2023-05-25T04:51:33.480Z,17.72
2023-05-25T04:52:36.653Z,17.76
2023-05-25T04:53:39.466Z,17.78
2023-05-25T04:54:43.496Z,17.80
2023-05-25T04:55:46.845Z,17.82
2023-05-25T04:56:49.929Z,17.85
2023-05-25T04:57:53.335Z,17.89
2023-05-25T04:58:56.091Z,17.95
2023-05-25T04:59:59.395Z,17.98
2023-05-25T05:01:02.295Z,17.97
2023-05-25T05:02:05.470Z,18.00
2023-05-25T05:03:08.362Z,18.03
2023-05-25T05:04:11.261Z,18.09
2023-05-25T05:05:14.353Z,18.16
2023-05-25T05:06:17.920Z,18.22
2023-05-25T05:07:22.983Z,18.27
2023-05-25T05:08:25.932Z,18.30
2023-05-25T05:09:29.235Z,18.36
2023-05-25T05:10:34.410Z,18.42
2023-05-25T05:11:37.317Z,18.48
2023-05-25T05:12:41.752Z,18.53
2023-05-25T05:13:45.238Z,18.52
2023-05-25T05:14:47.996Z,18.56
2023-05-25T05:15:50.999Z,18.59
2023-05-25T05:16:53.927Z,18.64
2023-05-25T05:17:57.170Z,18.70
2023-05-25T05:19:03.584Z,18.74
2023-05-25T05:20:07.460Z,18.77
2023-05-25T05:21:10.627Z,18.81
2023-05-25T05:22:15.513Z,18.85
2023-05-25T05:23:18.926Z,18.89
2023-05-25T05:24:21.685Z,18.94
2023-05-25T05:25:24.461Z,18.98
2023-05-25T05:26:27.810Z,19.07
2023-05-25T05:27:30.825Z,19.19
2023-05-25T05:28:49.553Z,19.30
2023-05-25T05:29:53.402Z,19.39
2023-05-25T05:30:56.526Z,19.47
2023-05-25T05:31:59.349Z,19.53
2023-05-25T05:33:02.326Z,19.57
2023-05-25T05:34:10.124Z,19.61
2023-05-25T05:35:12.978Z,19.66
2023-05-25T05:36:21.212Z,19.71
2023-05-25T05:37:23.975Z,19.75
2023-05-25T05:38:27.548Z,19.81
2023-05-25T05:39:30.292Z,19.85
2023-05-25T05:40:33.409Z,19.89
2023-05-25T05:41:36.396Z,19.93
2023-05-25T05:42:39.207Z,19.95
2023-05-25T05:43:42.444Z,20.00
2023-05-25T05:44:45.253Z,20.02
2023-05-25T05:45:48.048Z,20.07
2023-05-25T05:46:51.097Z,20.11
2023-05-25T05:47:54.043Z,20.14
2023-05-25T05:48:57.148Z,20.15
2023-05-25T05:49:59.893Z,20.18
2023-05-25T05:51:05.868Z,20.22
2023-05-25T05:52:09.886Z,20.26
2023-05-25T05:53:12.811Z,20.30
2023-05-25T05:54:15.602Z,20.34
2023-05-25T05:55:18.593Z,20.35
2023-05-25T05:56:21.980Z,20.38
2023-05-25T05:57:24.673Z,20.39
2023-05-25T05:58:27.435Z,20.40
2023-05-25T05:59:30.439Z,20.43
2023-05-25T06:00:33.971Z,20.46
2023-05-25T06:01:36.777Z,20.49
2023-05-25T06:02:41.673Z,20.51
2023-05-25T06:03:45.781Z,20.55
2023-05-25T06:04:48.547Z,20.56
2023-05-25T06:05:51.380Z,20.55
2023-05-25T06:06:55.482Z,20.48
2023-05-25T06:07:58.173Z,20.39
2023-05-25T06:09:03.568Z,20.30
2023-05-25T06:10:06.624Z,20.22
2023-05-25T06:11:09.469Z,20.16
2023-05-25T06:12:12.204Z,20.11
2023-05-25T06:13:15.088Z,20.07
2023-05-25T06:14:18.151Z,20.05
2023-05-25T06:15:21.059Z,20.04
2023-05-25T06:16:25.373Z,20.01
2023-05-25T06:17:28.324Z,20.01
2023-05-25T06:18:31.185Z,20.01
2023-05-25T06:19:34.184Z,20.01
2023-05-25T06:20:36.949Z,20.02
2023-05-25T06:21:39.940Z,20.02
2023-05-25T06:22:42.644Z,20.03
2023-05-25T06:23:45.788Z,20.05
2023-05-25T06:24:48.523Z,20.07
2023-05-25T06:25:52.451Z,20.09
2023-05-25T06:26:55.199Z,20.11
2023-05-25T06:27:58.098Z,20.14
2023-05-25T06:29:00.892Z,20.16
2023-05-25T06:30:03.845Z,20.19
2023-05-25T06:31:06.710Z,20.20
2023-05-25T06:32:11.052Z,20.23
2023-05-25T06:33:14.249Z,20.25
2023-05-25T06:34:18.070Z,20.28
2023-05-25T06:35:21.601Z,20.31
2023-05-25T06:36:27.479Z,20.35
2023-05-25T06:37:35.257Z,20.39
2023-05-25T06:38:38.917Z,20.42
2023-05-25T06:39:43.550Z,20.46
2023-05-25T06:40:46.613Z,20.50
2023-05-25T06:41:51.202Z,20.54
2023-05-25T06:43:02.470Z,20.58
2023-05-25T06:44:19.610Z,20.63
2023-05-25T06:45:23.221Z,20.65
2023-05-25T06:46:26.050Z,20.68
2023-05-25T06:47:29.997Z,20.71
2023-05-25T06:48:33.941Z,20.75
2023-05-25T06:49:36.752Z,20.76
2023-05-25T06:50:40.318Z,20.76
2023-05-25T06:51:42.987Z,20.78
2023-05-25T06:52:46.856Z,20.80
2023-05-25T06:53:49.879Z,20.80
2023-05-25T06:54:52.639Z,20.81
2023-05-25T06:55:55.410Z,20.81
2023-05-25T06:56:58.076Z,20.82
2023-05-25T06:58:01.048Z,20.84
2023-05-25T06:59:03.747Z,20.87
2023-05-25T07:00:07.953Z,20.89
2023-05-25T07:01:10.819Z,20.91
2023-05-25T07:02:13.700Z,20.94
2023-05-25T07:03:16.739Z,20.96
2023-05-25T07:04:19.616Z,20.98
2023-05-25T07:05:22.392Z,21.00
2023-05-25T07:06:25.498Z,21.02
2023-05-25T07:07:28.255Z,21.04
2023-05-25T07:08:31.598Z,21.07
2023-05-25T07:09:34.423Z,21.07
2023-05-25T07:10:37.271Z,21.07
2023-05-25T07:11:39.941Z,21.08
2023-05-25T07:12:42.652Z,21.10
2023-05-25T07:13:45.480Z,21.12
2023-05-25T07:14:48.514Z,21.13
2023-05-25T07:15:52.732Z,21.16
2023-05-25T07:16:55.600Z,21.20
2023-05-25T07:17:58.741Z,21.23
2023-05-25T07:19:01.652Z,21.24
2023-05-25T07:20:06.261Z,21.26
2023-05-25T07:21:11.865Z,21.26
2023-05-25T07:22:17.015Z,21.28
2023-05-25T07:23:19.725Z,21.30
2023-05-25T07:24:22.465Z,21.31
2023-05-25T07:25:25.211Z,21.32
2023-05-25T07:26:28.284Z,21.33
2023-05-25T07:27:31.664Z,21.34
2023-05-25T07:28:34.366Z,21.33
2023-05-25T07:29:37.146Z,21.34
2023-05-25T07:30:40.806Z,21.35
2023-05-25T07:31:43.661Z,21.36
2023-05-25T07:32:46.551Z,21.38
2023-05-25T07:33:49.516Z,21.35
2023-05-25T07:34:52.357Z,21.30
2023-05-25T07:35:55.174Z,21.27
2023-05-25T07:36:57.926Z,21.23
2023-05-25T07:38:01.308Z,21.19
2023-05-25T07:39:04.196Z,21.16
2023-05-25T07:40:07.218Z,21.16
2023-05-25T07:41:09.945Z,21.15
2023-05-25T07:42:12.758Z,21.17
2023-05-25T07:43:15.541Z,21.19
2023-05-25T07:44:18.231Z,21.22
2023-05-25T07:45:21.426Z,21.27
2023-05-25T07:46:25.857Z,21.31
2023-05-25T07:47:28.983Z,21.36
2023-05-25T07:48:31.910Z,21.42
2023-05-25T07:49:34.952Z,21.45
2023-05-25T07:50:37.665Z,21.50
2023-05-25T07:51:40.485Z,21.54
2023-05-25T07:52:43.378Z,21.60
2023-05-25T07:53:46.158Z,21.65
2023-05-25T07:54:48.995Z,21.68
2023-05-25T07:55:51.995Z,21.72
2023-05-25T07:56:54.825Z,21.75
2023-05-25T07:57:57.510Z,21.77
2023-05-25T07:59:01.035Z,21.79
2023-05-25T08:00:11.063Z,21.82
2023-05-25T08:01:17.404Z,21.82
2023-05-25T08:02:20.196Z,21.83
2023-05-25T08:03:31.667Z,21.83
2023-05-25T08:04:43.125Z,21.87
2023-05-25T08:05:46.185Z,21.88
2023-05-25T08:06:49.633Z,21.89
2023-05-25T08:07:53.657Z,21.88
2023-05-25T08:08:56.386Z,21.90
2023-05-25T08:09:59.213Z,21.93
2023-05-25T08:11:01.983Z,21.96
2023-05-25T08:12:27.177Z,21.99
2023-05-25T08:13:27.950Z,22.02
2023-05-25T08:14:30.703Z,22.05
2023-05-25T08:15:33.454Z,22.09
2023-05-25T08:16:36.821Z,22.13
2023-05-25T08:17:39.880Z,22.19
2023-05-25T08:18:46.559Z,22.26
2023-05-25T08:19:49.277Z,22.34
2023-05-25T08:20:52.095Z,22.42
2023-05-25T08:21:54.850Z,22.52
2023-05-25T08:22:59.224Z,22.61
2023-05-25T08:24:04.257Z,22.69
2023-05-25T08:25:08.114Z,22.77
2023-05-25T08:26:29.097Z,22.84
2023-05-25T08:27:36.026Z,22.89
2023-05-25T08:28:39.411Z,22.95
2023-05-25T08:29:42.228Z,22.99
2023-05-25T08:30:45.674Z,23.03
2023-05-25T08:31:49.866Z,23.07
2023-05-25T08:32:52.676Z,23.13
2023-05-25T08:33:55.666Z,23.17
2023-05-25T08:34:58.376Z,23.22
2023-05-25T08:36:01.102Z,23.25
2023-05-25T08:37:03.887Z,23.28
2023-05-25T08:38:06.732Z,23.29
2023-05-25T08:39:10.304Z,23.30
2023-05-25T08:40:15.223Z,23.31
2023-05-25T08:41:19.719Z,23.32
2023-05-25T08:42:23.627Z,23.33
2023-05-25T08:43:26.459Z,23.35
2023-05-25T08:44:29.495Z,23.35
2023-05-25T08:45:49.288Z,23.35
2023-05-25T08:46:52.876Z,23.33
2023-05-25T08:47:59.236Z,23.32
2023-05-25T08:49:09.122Z,23.32
2023-05-25T08:50:12.575Z,23.33
2023-05-25T08:51:16.416Z,23.33
2023-05-25T08:52:21.868Z,23.33
2023-05-25T08:53:26.532Z,23.33
2023-05-25T08:54:30.237Z,23.33
2023-05-25T08:55:36.116Z,23.33
2023-05-25T08:56:52.704Z,23.31
2023-05-25T08:58:00.080Z,23.30
2023-05-25T08:59:07.272Z,23.29
2023-05-25T09:00:13.069Z,23.29
2023-05-25T09:01:18.579Z,23.31
2023-05-25T09:02:26.900Z,23.33
2023-05-25T09:03:30.975Z,23.38
2023-05-25T09:04:34.499Z,23.42
2023-05-25T09:05:38.140Z,23.48
2023-05-25T09:06:41.161Z,23.53
2023-05-25T09:07:44.295Z,23.56
2023-05-25T09:08:47.083Z,23.62
2023-05-25T09:09:50.281Z,23.68
2023-05-25T09:10:53.838Z,23.72
2023-05-25T09:11:57.685Z,23.77
2023-05-25T09:13:09.689Z,23.81
2023-05-25T09:14:23.873Z,23.86
2023-05-25T09:15:26.782Z,23.90
2023-05-25T09:16:31.167Z,23.95
2023-05-25T09:17:37.397Z,23.98
2023-05-25T09:18:41.140Z,24.02
2023-05-25T09:19:44.324Z,24.04
2023-05-25T09:20:47.862Z,24.09
2023-05-25T09:21:53.081Z,24.12
2023-05-25T09:23:03.337Z,24.15
2023-05-25T09:24:06.300Z,24.16
2023-05-25T09:25:10.523Z,24.14
2023-05-25T09:26:13.389Z,24.12
2023-05-25T09:27:17.714Z,24.10
2023-05-25T09:29:26.717Z,24.11
2023-05-25T09:30:32.876Z,24.12
2023-05-25T09:31:38.584Z,24.13
2023-05-25T09:32:41.987Z,24.15
2023-05-25T09:33:46.014Z,24.15
2023-05-25T09:34:49.568Z,24.13
2023-05-25T09:35:52.533Z,24.12
2023-05-25T09:36:56.981Z,24.10
2023-05-25T09:38:00.111Z,24.10
2023-05-25T09:39:03.207Z,24.12
2023-05-25T09:40:06.713Z,24.11
2023-05-25T09:41:09.431Z,24.13
2023-05-25T09:42:12.438Z,24.11
2023-05-25T09:43:24.937Z,24.03
2023-05-25T09:44:28.235Z,23.96
2023-05-25T09:45:31.635Z,23.89
2023-05-25T09:46:37.763Z,23.78
2023-05-25T09:47:40.685Z,23.68
2023-05-25T09:48:43.690Z,23.61
2023-05-25T09:49:47.848Z,23.59
2023-05-25T09:50:51.362Z,23.60
2023-05-25T09:51:54.314Z,23.60
2023-05-25T09:52:59.253Z,23.60
2023-05-25T09:54:02.721Z,23.59
2023-05-25T09:55:09.360Z,23.58
2023-05-25T09:56:12.698Z,23.59
2023-05-25T09:57:16.840Z,23.60
2023-05-25T09:58:19.506Z,23.65
2023-05-25T09:59:22.858Z,23.68
2023-05-25T10:00:25.910Z,23.67
2023-05-25T10:01:28.929Z,23.63
2023-05-25T10:02:32.218Z,23.61
2023-05-25T10:03:34.997Z,23.61
2023-05-25T10:04:38.015Z,23.62
2023-05-25T10:05:40.891Z,23.65
2023-05-25T10:06:45.858Z,23.68
2023-05-25T10:07:49.738Z,23.72
2023-05-25T10:08:53.744Z,23.76
2023-05-25T10:10:02.083Z,23.81
2023-05-25T10:11:05.136Z,23.86
2023-05-25T10:12:08.776Z,23.89
2023-05-25T10:13:12.801Z,23.94
2023-05-25T10:14:20.058Z,23.99
2023-05-25T10:15:23.208Z,24.07
2023-05-25T10:16:28.026Z,24.16
2023-05-25T10:17:32.673Z,24.27
2023-05-25T10:18:37.653Z,24.36
2023-05-25T10:19:43.186Z,24.42
2023-05-25T10:20:48.070Z,24.48
2023-05-25T10:22:13.863Z,24.55
2023-05-25T10:23:20.364Z,24.64
2023-05-25T10:24:35.042Z,24.72
2023-05-25T10:25:44.422Z,24.80
2023-05-25T10:26:49.168Z,24.86
2023-05-25T10:28:00.033Z,24.86
2023-05-25T10:29:04.650Z,24.83
2023-05-25T10:30:08.923Z,24.80
2023-05-25T10:31:12.406Z,24.78
2023-05-25T10:32:16.466Z,24.75
2023-05-25T10:33:20.192Z,24.74
2023-05-25T10:34:23.154Z,24.75
2023-05-25T10:35:26.257Z,24.77
2023-05-25T10:36:30.793Z,24.79
2023-05-25T10:37:34.297Z,24.79
2023-05-25T10:38:39.296Z,24.79
2023-05-25T10:39:44.138Z,24.81
2023-05-25T10:40:51.368Z,24.81
2023-05-25T10:41:54.336Z,24.81
2023-05-25T10:42:57.134Z,24.82
2023-05-25T10:44:00.438Z,24.82
2023-05-25T10:45:07.459Z,24.84
2023-05-25T10:46:10.920Z,24.86
2023-05-25T10:47:15.218Z,24.88
2023-05-25T10:48:18.048Z,24.91
2023-05-25T10:49:31.715Z,24.98
2023-05-25T10:50:35.278Z,25.07
2023-05-25T10:51:38.808Z,25.15
2023-05-25T10:52:41.637Z,25.19
2023-05-25T10:53:45.925Z,25.23
2023-05-25T10:54:48.797Z,25.24
2023-05-25T10:55:51.956Z,25.25
2023-05-25T10:57:10.348Z,25.26
2023-05-25T10:58:13.937Z,25.31
2023-05-25T10:59:25.618Z,25.38
2023-05-25T11:00:30.846Z,25.47
2023-05-25T11:01:49.741Z,25.48
2023-05-25T11:02:56.147Z,25.51
2023-05-25T11:04:11.469Z,25.52
2023-05-25T11:05:26.613Z,25.46
2023-05-25T11:06:49.849Z,25.39
2023-05-25T11:07:53.058Z,25.36
2023-05-25T11:08:59.497Z,25.35
2023-05-25T11:10:03.410Z,25.38
2023-05-25T11:11:06.153Z,25.42
2023-05-25T11:12:09.376Z,25.44
2023-05-25T11:13:30.633Z,25.44
2023-05-25T11:14:36.149Z,25.40
2023-05-25T11:15:40.128Z,25.38
2023-05-25T11:16:43.210Z,25.36
2023-05-25T11:18:00.142Z,25.33
2023-05-25T11:19:03.116Z,25.31
2023-05-25T11:20:06.350Z,25.34
2023-05-25T11:21:18.729Z,25.43
2023-05-25T11:22:37.674Z,25.51
2023-05-25T11:23:55.953Z,25.58
2023-05-25T11:25:00.037Z,25.71
2023-05-25T11:26:06.784Z,25.91
2023-05-25T11:27:09.715Z,26.02
2023-05-25T11:28:12.996Z,26.07
2023-05-25T11:29:16.391Z,25.99
2023-05-25T11:30:19.303Z,25.83
2023-05-25T11:31:27.461Z,25.71
2023-05-25T11:32:30.715Z,25.57
2023-05-25T11:33:33.625Z,25.40
2023-05-25T11:34:36.579Z,25.33
2023-05-25T11:35:39.998Z,25.37
2023-05-25T11:36:42.839Z,25.33
2023-05-25T11:37:50.764Z,25.32
2023-05-25T11:39:04.763Z,25.35
2023-05-25T11:40:11.992Z,25.47
2023-05-25T11:41:32.986Z,25.66
2023-05-25T11:42:36.154Z,25.90
2023-05-25T11:43:40.343Z,26.10
2023-05-25T11:44:43.536Z,26.25
2023-05-25T11:45:55.321Z,26.35
2023-05-25T11:47:01.707Z,26.45
2023-05-25T11:48:05.274Z,26.60
2023-05-25T11:49:08.355Z,26.83
2023-05-25T11:50:17.437Z,26.93
2023-05-25T11:51:24.449Z,27.00
2023-05-25T11:52:27.801Z,27.03
2023-05-25T11:53:32.474Z,27.03
2023-05-25T11:54:35.861Z,27.06
2023-05-25T11:55:41.064Z,27.09
2023-05-25T11:56:43.851Z,27.09
2023-05-25T11:57:46.842Z,27.05
2023-05-25T11:58:50.661Z,26.94
2023-05-25T11:59:54.431Z,26.80
2023-05-25T12:01:12.074Z,26.70
2023-05-25T12:02:14.862Z,26.55
2023-05-25T12:03:31.423Z,26.37
2023-05-25T12:04:34.817Z,26.17
2023-05-25T12:05:38.485Z,26.04
2023-05-25T12:06:41.392Z,25.91
2023-05-25T12:07:46.686Z,25.81
2023-05-25T12:08:49.535Z,25.73
2023-05-25T12:10:05.201Z,25.63
2023-05-25T12:11:09.102Z,25.53
2023-05-25T12:12:12.029Z,25.45
2023-05-25T12:13:14.896Z,25.38
2023-05-25T12:14:17.716Z,25.29
2023-05-25T12:15:24.242Z,25.15
2023-05-25T12:16:27.250Z,24.98
2023-05-25T12:17:30.074Z,24.82
2023-05-25T12:18:32.942Z,24.67
2023-05-25T12:19:36.449Z,24.51
2023-05-25T12:20:41.378Z,24.36
2023-05-25T12:21:44.838Z,24.20
2023-05-25T12:22:47.941Z,24.07
2023-05-25T12:23:51.386Z,23.98
2023-05-25T12:24:54.109Z,23.88
2023-05-25T12:26:09.370Z,23.71
2023-05-25T12:27:18.674Z,23.47
2023-05-25T12:28:21.585Z,23.28
2023-05-25T12:29:25.837Z,23.13
2023-05-25T12:30:28.594Z,23.01
2023-05-25T12:31:32.895Z,22.93
2023-05-25T12:32:50.837Z,22.83
2023-05-25T12:34:10.702Z,22.68
2023-05-25T12:35:13.472Z,22.52
2023-05-25T12:36:16.339Z,22.40
2023-05-25T12:37:20.174Z,22.31
2023-05-25T12:38:23.376Z,22.26
2023-05-25T12:39:29.200Z,22.18
2023-05-25T12:40:32.042Z,22.06
2023-05-25T12:41:54.744Z,21.96
2023-05-25T12:42:58.113Z,21.89
2023-05-25T12:44:00.958Z,21.80
2023-05-25T12:45:07.280Z,21.73
2023-05-25T12:46:10.327Z,21.66
2023-05-25T12:47:17.487Z,21.59
2023-05-25T12:48:26.263Z,21.52
2023-05-25T12:49:28.994Z,21.45
2023-05-25T12:50:32.931Z,21.41
2023-05-25T12:51:39.280Z,21.38
2023-05-25T12:52:43.920Z,21.39
2023-05-25T12:53:47.433Z,21.40
2023-05-25T12:54:50.212Z,21.43
2023-05-25T12:56:03.067Z,21.43
2023-05-25T12:57:06.780Z,21.46
2023-05-25T12:58:25.607Z,21.48
2023-05-25T12:59:31.705Z,21.52
2023-05-25T13:00:35.596Z,21.55
2023-05-25T13:01:38.429Z,21.58
2023-05-25T13:02:44.598Z,21.62
2023-05-25T13:03:47.407Z,21.73
2023-05-25T13:04:50.492Z,21.74
2023-05-25T13:05:59.723Z,21.74
2023-05-25T13:07:02.703Z,21.76
2023-05-25T13:08:06.471Z,21.79
2023-05-25T13:09:09.190Z,21.87
2023-05-25T13:10:17.766Z,21.84
2023-05-25T13:11:20.570Z,21.83
2023-05-25T13:12:23.342Z,21.84
2023-05-25T13:13:27.153Z,21.90
2023-05-25T13:14:30.496Z,22.04
2023-05-25T13:15:33.417Z,22.19
2023-05-25T13:16:36.388Z,22.33
2023-05-25T13:17:41.115Z,22.45
2023-05-25T13:18:43.944Z,22.56
2023-05-25T13:19:46.736Z,22.63
2023-05-25T13:20:51.289Z,22.74
2023-05-25T13:21:56.762Z,22.83
2023-05-25T13:22:59.749Z,22.88
2023-05-25T13:24:02.504Z,22.91
2023-05-25T13:25:05.489Z,22.95
2023-05-25T13:26:08.259Z,23.00
2023-05-25T13:27:11.906Z,23.05
2023-05-25T13:28:14.666Z,23.11
2023-05-25T13:29:17.925Z,23.18
2023-05-25T13:30:22.096Z,23.28
2023-05-25T13:31:25.153Z,23.30
2023-05-25T13:32:31.406Z,23.29
2023-05-25T13:33:35.695Z,23.36
2023-05-25T13:34:38.591Z,23.40
2023-05-25T13:35:46.111Z,23.44
2023-05-25T13:36:49.030Z,23.52
2023-05-25T13:37:51.809Z,23.62
2023-05-25T13:38:54.825Z,23.71
2023-05-25T13:39:58.427Z,23.84
2023-05-25T13:41:01.812Z,24.00
2023-05-25T13:42:04.651Z,24.26
2023-05-25T13:43:07.375Z,24.62
2023-05-25T13:44:11.201Z,25.05
2023-05-25T13:45:14.138Z,25.41
2023-05-25T13:46:32.866Z,25.75
2023-05-25T13:47:37.026Z,26.23
2023-05-25T13:48:40.742Z,26.68
2023-05-25T13:49:43.767Z,27.21
2023-05-25T13:50:46.729Z,27.72
2023-05-25T13:51:49.561Z,28.22
2023-05-25T13:52:52.221Z,28.75
2023-05-25T13:53:54.933Z,29.34
2023-05-25T13:54:57.617Z,29.86
2023-05-25T13:56:00.505Z,30.28
2023-05-25T13:57:03.718Z,30.60